M I D A S
Marine Information and Data Acquisition System
Tripno 905 of the Zeeleeuw from 2005-05-26 06:19:52 to 2005-05-26 13:04:20
Back to CruiseResearch ActivitiesStationsMapUnderway DataData graphs

EquipmentUnitsComment
TimeDGPSUTC
LatitudeDGPSDM.mWGS84
LongitudeDGPSDM.mWGS84
HeadingGyrodeg 
SOGDGPSknotsSpeed over ground
COGDGPSdegCourse over ground
DepthEcho soundermeters200 kHz
Missing or incorrect values are displayed as -999
Navigation data collected by the RV Zeeleeuw from 2005-05-26 06:20:44 to 2005-05-26 13:17:14
Time Latitude Longitude Heading SOG COG Depth
2005-05-26 06:21:49 51°13.617 2°56.04 114.5 3.7 295 -999
2005-05-26 06:22:49 51°13.633 2°55.984 114.9 1.5 302 9
2005-05-26 06:23:49 51°13.658 2°55.9 118.8 4.5 295 -999
2005-05-26 06:24:49 51°13.701 2°55.779 129.1 5.7 305 -999
2005-05-26 06:25:49 51°13.775 2°55.673 153.1 6.2 325 -999
2005-05-26 06:26:49 51°13.874 2°55.637 187.7 6 2 -999
2005-05-26 06:27:48 51°13.935 2°55.66 220.5 0.9 354 8.3
2005-05-26 06:28:49 51°13.961 2°55.565 317.3 5.5 316 8.8
2005-05-26 06:29:49 51°14.058 2°55.473 336 7.3 332 8.7
2005-05-26 06:30:48 51°14.184 2°55.371 335.8 9.2 332 9.3
2005-05-26 06:31:48 51°14.308 2°55.219 319.3 9.5 318 8.4
2005-05-26 06:32:49 51°14.416 2°54.985 308.3 11.6 304 9.3
2005-05-26 06:33:49 51°14.55 2°54.75 328.2 12.6 319 9
2005-05-26 06:34:49 51°14.723 2°54.524 329 13.8 319 8.5
2005-05-26 06:35:49 51°14.905 2°54.307 334.9 13.5 327 7.9
2005-05-26 06:36:48 51°15.089 2°54.121 336.9 13.2 329 7.5
2005-05-26 06:37:49 51°15.275 2°53.916 337.5 13.7 332 8.2
2005-05-26 06:38:48 51°15.477 2°53.744 335.7 14.2 329 9
2005-05-26 06:39:48 51°15.678 2°53.552 336.8 14.1 328 9.7
2005-05-26 06:40:48 51°15.879 2°53.36 337.7 14 328 10.1
2005-05-26 06:41:49 51°16.083 2°53.179 340.1 13.9 331 10.5
2005-05-26 06:42:48 51°16.29 2°53.017 343.6 13.8 335 10.9
2005-05-26 06:43:49 51°16.505 2°52.858 344 14 335 10.6
2005-05-26 06:44:49 51°16.717 2°52.701 343.3 13.9 335 9.3
2005-05-26 06:45:49 51°16.92 2°52.546 341.1 13.7 333 8.6
2005-05-26 06:46:48 51°17.125 2°52.401 346 13.7 338 8.6
2005-05-26 06:47:49 51°17.331 2°52.227 341.3 14 333 9
2005-05-26 06:48:49 51°17.533 2°52.046 335.3 14 329 9.1
2005-05-26 06:49:48 51°17.724 2°51.852 331 13.8 327 8.9
2005-05-26 06:50:48 51°17.904 2°51.622 327.4 13.9 320 9
2005-05-26 06:51:49 51°18.083 2°51.366 327.5 14.4 319 10.1
2005-05-26 06:52:49 51°18.249 2°51.093 315.7 14.5 308 11.5
2005-05-26 06:53:49 51°18.378 2°50.768 306.7 14.5 299 12.3
2005-05-26 06:54:48 51°18.491 2°50.432 305.1 14.5 297 12.9
2005-05-26 06:55:48 51°18.602 2°50.089 304.1 14.5 297 12.5
2005-05-26 06:56:49 51°18.703 2°49.735 299.2 14.5 293 10.3
2005-05-26 06:57:49 51°18.799 2°49.383 299.7 14.5 293 9.2
2005-05-26 06:58:49 51°18.897 2°49.022 299.5 14.7 294 10.4
2005-05-26 06:59:49 51°18.997 2°48.659 299.4 14.9 293 12.7
2005-05-26 07:00:48 51°19.091 2°48.302 299 14.6 293 15.3
2005-05-26 07:01:49 51°19.181 2°47.94 296.4 14.6 289 17.2
2005-05-26 07:02:49 51°19.261 2°47.572 295.9 14.7 289 19.1
2005-05-26 07:03:49 51°19.342 2°47.203 296.1 14.7 289 19.8
2005-05-26 07:04:49 51°19.426 2°46.83 296.4 14.8 290 19.9
2005-05-26 07:05:49 51°19.496 2°46.455 290.2 14.8 286 17.7
2005-05-26 07:06:49 51°19.557 2°46.076 289.8 14.8 284 15
2005-05-26 07:07:49 51°19.618 2°45.695 290 14.7 285 11.5
2005-05-26 07:08:49 51°19.681 2°45.316 289.6 15.1 284 13.1
2005-05-26 07:09:49 51°19.738 2°44.927 288.7 14.9 283 19.6
2005-05-26 07:10:49 51°19.795 2°44.539 288.8 15 283 21.4
2005-05-26 07:11:49 51°19.852 2°44.154 289.3 14.9 284 22.4
2005-05-26 07:12:48 51°19.911 2°43.772 289.4 14.8 284 23.7
2005-05-26 07:13:48 51°19.97 2°43.392 289.5 14.8 285 24.7
2005-05-26 07:14:49 51°20.033 2°43.009 289.2 14.8 284 24.4
2005-05-26 07:15:48 51°20.092 2°42.633 287.4 14.7 281 21.8
2005-05-26 07:16:48 51°20.146 2°42.253 289.9 14.7 284 20.3
2005-05-26 07:17:48 51°20.204 2°41.87 289.1 14.9 283 18.1
2005-05-26 07:18:49 51°20.263 2°41.48 289 15.1 283 20.6
2005-05-26 07:19:48 51°20.322 2°41.096 289 15 283 19.6
2005-05-26 07:20:48 51°20.381 2°40.709 289.1 15 283 26.4
2005-05-26 07:21:49 51°20.439 2°40.317 289.4 14.9 284 25.3
2005-05-26 07:22:49 51°20.488 2°39.931 282.7 15 277 25.4
2005-05-26 07:23:49 51°20.512 2°39.531 280.1 15 276 23.9
2005-05-26 07:24:49 51°20.537 2°39.137 280.3 15 275 22.7
2005-05-26 07:25:49 51°20.562 2°38.737 279.6 14.9 275 21.2
2005-05-26 07:26:48 51°20.585 2°38.349 280.3 14.9 275 21.5
2005-05-26 07:27:49 51°20.607 2°37.951 280.3 14.8 275 20.9
2005-05-26 07:28:49 51°20.629 2°37.555 280.6 14.9 276 21.9
2005-05-26 07:29:49 51°20.653 2°37.161 280.4 15 276 21.2
2005-05-26 07:30:49 51°20.676 2°36.762 279.8 15.1 275 19.4
2005-05-26 07:31:49 51°20.699 2°36.365 280.8 15.2 275 19.3
2005-05-26 07:32:49 51°20.723 2°35.961 279.6 15.3 275 22.4
2005-05-26 07:33:48 51°20.745 2°35.563 279.8 15.1 274 22.7
2005-05-26 07:34:48 51°20.766 2°35.162 280.8 15.1 275 27.7
2005-05-26 07:35:49 51°20.788 2°34.758 280.4 15.1 274 28.3
2005-05-26 07:36:48 51°20.875 2°34.399 308.3 14.6 298 29.7
2005-05-26 07:37:49 51°21.029 2°34.1 325.8 14.4 317 28.8
2005-05-26 07:38:49 51°21.222 2°33.88 336.8 14.3 326 30.1
2005-05-26 07:39:49 51°21.431 2°33.703 348.6 14 338 29.6
2005-05-26 07:40:48 51°21.646 2°33.565 348.7 14.2 338 25.6
2005-05-26 07:41:49 51°21.867 2°33.423 347.8 14.2 337 21.5
2005-05-26 07:42:49 51°22.084 2°33.268 342.9 14.5 332 25.2
2005-05-26 07:43:49 51°22.281 2°33.045 323.9 14.6 314 28.8
2005-05-26 07:44:49 51°22.43 2°32.736 313.9 14.5 306 29.3
2005-05-26 07:45:48 51°22.544 2°32.396 298.6 14.9 292 29.2
2005-05-26 07:46:49 51°22.581 2°31.998 280.3 15.1 275 28.4
2005-05-26 07:47:49 51°22.603 2°31.596 280.4 15.2 272 28.9
2005-05-26 07:48:48 51°22.597 2°31.194 272 15.3 268 28.7
2005-05-26 07:49:48 51°22.589 2°30.786 273.6 15.4 268 28.7
2005-05-26 07:50:48 51°22.583 2°30.376 274.7 15.4 269 29.9
2005-05-26 07:51:49 51°22.58 2°29.961 274.7 15.5 270 30.2
2005-05-26 07:52:49 51°22.577 2°29.547 274.2 15.4 269 30.6
2005-05-26 07:53:49 51°22.573 2°29.141 275.1 15.3 269 31.2
2005-05-26 07:54:49 51°22.571 2°28.733 275.3 15.3 270 31.3
2005-05-26 07:55:49 51°22.569 2°28.331 275 15.2 270 31.8
2005-05-26 07:56:49 51°22.568 2°27.927 275.7 15.2 270 31.8
2005-05-26 07:57:49 51°22.566 2°27.521 275.5 15.3 270 33.2
2005-05-26 07:58:48 51°22.564 2°27.117 275 15.4 269 32
2005-05-26 07:59:49 51°22.576 2°26.708 281.6 15.3 275 31.6
2005-05-26 08:00:49 51°22.609 2°26.306 287.3 15.1 282 30.4
2005-05-26 08:01:49 51°22.733 2°25.978 323.7 14.3 315 21.3
2005-05-26 08:02:49 51°22.931 2°25.781 342.6 14 331 16.5
2005-05-26 08:03:48 51°23.137 2°25.611 345 14.1 332 27.5
2005-05-26 08:04:49 51°23.355 2°25.5 353.3 13.6 342 30.8
2005-05-26 08:05:49 51°23.568 2°25.391 351.9 13.4 342 30.8
2005-05-26 08:06:48 51°23.778 2°25.281 351.3 13.3 342 32
2005-05-26 08:07:48 51°23.992 2°25.261 12.3 12.8 3 32.2
2005-05-26 08:08:49 51°24.21 2°25.275 11.5 12.9 2 32.3
2005-05-26 08:09:49 51°24.423 2°25.284 10.2 12.9 1 32.9
2005-05-26 08:10:49 51°24.635 2°25.29 9.7 12.8 -999 32.9
2005-05-26 08:11:49 51°24.85 2°25.288 9.6 12.7 -999 32.3
2005-05-26 08:12:49 51°25.061 2°25.289 9.4 12.8 -999 33.3
2005-05-26 08:13:49 51°25.276 2°25.287 9.8 12.9 -999 31.2
2005-05-26 08:14:49 51°25.489 2°25.289 9.5 12.9 1 27.1
2005-05-26 08:15:49 51°25.703 2°25.288 9 12.9 -999 27.3
2005-05-26 08:16:49 51°25.917 2°25.289 9.1 12.9 -999 24.6
2005-05-26 08:17:49 51°26.132 2°25.289 9.6 13 -999 29
2005-05-26 08:18:49 51°26.345 2°25.293 9.5 12.9 1 31.8
2005-05-26 08:19:49 51°26.558 2°25.293 8.7 12.8 359 32
2005-05-26 08:20:49 51°26.772 2°25.293 8.9 12.7 1 32.6
2005-05-26 08:21:48 51°26.98 2°25.293 9.2 12.7 -999 32.2
2005-05-26 08:22:49 51°27.193 2°25.295 9.4 12.6 -999 32.8
2005-05-26 08:23:49 51°27.403 2°25.298 9.7 12.6 -999 32.8
2005-05-26 08:24:49 51°27.613 2°25.3 9.5 12.5 1 33.3
2005-05-26 08:25:48 51°27.821 2°25.302 8.8 12.6 359 33.4
2005-05-26 08:26:49 51°28.033 2°25.304 9.4 12.5 1 33.9
2005-05-26 08:27:49 51°28.241 2°25.309 9.5 12.6 1 34.9
2005-05-26 08:28:49 51°28.449 2°25.316 9.7 12.4 1 35.1
2005-05-26 08:29:49 51°28.658 2°25.323 9.6 12.5 1 33.5
2005-05-26 08:30:48 51°28.86 2°25.359 15.7 12.4 9 30.9
2005-05-26 08:31:49 51°29.067 2°25.404 15.6 12.5 8 28.3
2005-05-26 08:32:48 51°29.27 2°25.45 15.2 12.5 7 23.6
2005-05-26 08:33:48 51°29.475 2°25.491 15.3 12.4 6 26.3
2005-05-26 08:34:49 51°29.683 2°25.533 15.4 12.5 8 29.6
2005-05-26 08:35:49 51°29.887 2°25.577 15.6 12.5 7 25.1
2005-05-26 08:36:49 51°30.095 2°25.619 15 12.4 7 28.4
2005-05-26 08:37:49 51°30.299 2°25.658 14.6 12.4 6 34.4
2005-05-26 08:38:49 51°30.503 2°25.697 15.4 12.4 6 34.1
2005-05-26 08:39:49 51°30.708 2°25.729 14.9 12.3 6 37.1
2005-05-26 08:40:49 51°30.914 2°25.769 16.3 12.3 9 37.6
2005-05-26 08:41:49 51°31.089 2°25.916 37.1 11.9 31 37.9
2005-05-26 08:42:49 51°31.26 2°26.076 35.5 12 29 38.1
2005-05-26 08:43:48 51°31.435 2°26.221 34 11.9 27 38
2005-05-26 08:44:49 51°31.614 2°26.37 34.6 11.9 27 37.2
2005-05-26 08:45:49 51°31.792 2°26.508 33 11.9 25 37.8
2005-05-26 08:46:48 51°31.966 2°26.644 33.6 11.9 26 36.9
2005-05-26 08:47:49 51°32.146 2°26.784 33.4 11.9 26 37.2
2005-05-26 08:48:49 51°32.323 2°26.921 35.1 11.8 29 35.4
2005-05-26 08:49:49 51°32.487 2°27.082 38.8 11.6 32 37.3
2005-05-26 08:50:49 51°32.653 2°27.242 37.5 11.6 30 37.3
2005-05-26 08:51:49 51°32.823 2°27.396 37.3 11.7 29 36.1
2005-05-26 08:52:49 51°32.991 2°27.549 37.3 11.8 30 35.6
2005-05-26 08:53:49 51°33.16 2°27.705 37.4 11.7 29 34.2
2005-05-26 08:54:49 51°33.331 2°27.86 36.9 11.8 30 35.8
2005-05-26 08:55:49 51°33.5 2°28.018 37.6 11.8 31 32.1
2005-05-26 08:56:48 51°33.669 2°28.174 37.1 11.8 29 34.7
2005-05-26 08:57:48 51°33.838 2°28.332 38.4 11.7 31 35.5
2005-05-26 08:58:49 51°34.01 2°28.49 36.6 11.7 30 33.1
2005-05-26 08:59:49 51°34.18 2°28.649 37.5 11.8 30 32
2005-05-26 09:00:49 51°34.349 2°28.804 36.8 11.8 30 34
2005-05-26 09:01:49 51°34.519 2°28.964 37.8 11.8 31 34.3
2005-05-26 09:02:48 51°34.687 2°29.121 37.7 11.8 30 33
2005-05-26 09:03:49 51°34.857 2°29.283 37.7 11.7 31 33.2
2005-05-26 09:04:49 51°35.025 2°29.442 36.8 11.7 29 34.8
2005-05-26 09:05:49 51°35.195 2°29.599 37.1 11.7 30 29.6
2005-05-26 09:06:49 51°35.363 2°29.762 37.6 11.9 30 31.6
2005-05-26 09:07:48 51°35.531 2°29.922 36.7 11.8 30 34.4
2005-05-26 09:08:49 51°35.702 2°30.087 37 12 32 33.9
2005-05-26 09:09:49 51°35.871 2°30.25 37.4 11.9 31 35.2
2005-05-26 09:10:48 51°36.04 2°30.412 37.2 12 32 34.3
2005-05-26 09:11:48 51°36.211 2°30.579 37.6 11.9 33 34.5
2005-05-26 09:12:49 51°36.384 2°30.747 35.8 11.9 30 34.6
2005-05-26 09:13:49 51°36.55 2°30.91 36.7 11.9 32 35.8
2005-05-26 09:14:48 51°36.715 2°31.077 37.7 11.8 33 36.3
2005-05-26 09:15:48 51°36.881 2°31.248 37.5 11.8 33 37.6
2005-05-26 09:16:49 51°37.049 2°31.419 37.2 11.9 31 37.6
2005-05-26 09:17:49 51°37.217 2°31.588 37.7 11.7 33 38.3
2005-05-26 09:18:49 51°37.382 2°31.752 36.8 11.8 31 38.7
2005-05-26 09:19:49 51°37.548 2°31.923 37.9 11.8 33 38.3
2005-05-26 09:20:48 51°37.71 2°32.09 37.7 11.8 32 38.3
2005-05-26 09:21:49 51°37.877 2°32.263 38.3 11.9 34 37.3
2005-05-26 09:22:49 51°38.044 2°32.433 37.2 11.9 33 39.1
2005-05-26 09:23:49 51°38.208 2°32.605 37.3 11.9 33 40.9
2005-05-26 09:24:49 51°38.375 2°32.777 38 11.9 32 40.3
2005-05-26 09:25:49 51°38.545 2°32.947 36.2 11.9 31 40.8
2005-05-26 09:26:49 51°38.713 2°33.116 36.7 12 32 40.8
2005-05-26 09:27:49 51°38.88 2°33.285 37.7 11.8 33 40.8
2005-05-26 09:28:49 51°39.047 2°33.453 37.2 11.9 32 38.8
2005-05-26 09:29:48 51°39.215 2°33.613 35.4 11.9 30 39.5
2005-05-26 09:30:49 51°39.389 2°33.779 36.2 11.9 31 39.8
2005-05-26 09:31:49 51°39.558 2°33.939 35.4 11.9 31 39
2005-05-26 09:32:49 51°39.73 2°34.104 35.5 12 31 38.7
2005-05-26 09:33:49 51°39.902 2°34.264 34.7 11.9 30 37.1
2005-05-26 09:34:49 51°40.072 2°34.422 35.2 11.9 30 36.7
2005-05-26 09:35:49 51°40.244 2°34.583 35.5 11.8 31 35.5
2005-05-26 09:36:48 51°40.413 2°34.739 34.9 11.8 32 35
2005-05-26 09:37:49 51°40.535 2°34.992 57.4 11.9 56 34
2005-05-26 09:38:48 51°40.645 2°35.252 57.3 11.9 55 28.7
2005-05-26 09:39:49 51°40.758 2°35.52 56.3 11.8 53 29.7
2005-05-26 09:40:49 51°40.87 2°35.776 57.8 11.8 56 28.1
2005-05-26 09:41:49 51°40.978 2°36.043 59.5 11.8 61 20.9
2005-05-26 09:42:49 51°40.96 2°36.356 101.4 12.3 109 19.9
2005-05-26 09:43:49 51°40.863 2°36.658 112 12.8 117 30.1
2005-05-26 09:44:48 51°40.758 2°36.962 113.8 13.1 120 35
2005-05-26 09:45:48 51°40.65 2°37.267 113.3 13.1 119 35.9
2005-05-26 09:46:49 51°40.54 2°37.578 114 13.3 120 38.3
2005-05-26 09:47:50 51°40.43 2°37.892 113.2 13.3 118 40.3
2005-05-26 09:48:49 51°40.324 2°38.201 114.3 13.4 120 40.6
2005-05-26 09:49:50 51°40.214 2°38.513 114.4 13.3 120 40.8
2005-05-26 09:50:49 51°40.098 2°38.81 117.5 13.3 123 36.1
2005-05-26 09:51:50 51°39.978 2°39.116 118.3 13.2 121 38.6
2005-05-26 09:52:49 51°39.859 2°39.414 117.6 13.3 122 37.7
2005-05-26 09:53:48 51°39.744 2°39.709 118.2 13.3 123 37.5
2005-05-26 09:54:49 51°39.628 2°40.013 116.1 13.2 121 37
2005-05-26 09:55:49 51°39.512 2°40.316 117.9 13.1 122 34.2
2005-05-26 09:56:49 51°39.396 2°40.61 117.5 13.1 122 34.5
2005-05-26 09:57:48 51°39.283 2°40.905 117.9 13.1 122 27.4
2005-05-26 09:58:49 51°39.166 2°41.205 117.5 13 122 23.7
2005-05-26 09:59:49 51°39.048 2°41.489 116.7 12.7 123 20
2005-05-26 10:00:49 51°38.935 2°41.785 117.1 13.1 122 22.8
2005-05-26 10:01:49 51°38.744 2°41.965 161.1 14.4 170 25.6
2005-05-26 10:02:49 51°38.497 2°41.965 178.7 15.1 182 25.4
2005-05-26 10:03:50 51°38.246 2°41.954 178.3 14.9 181 28.8
2005-05-26 10:04:49 51°37.998 2°41.94 179.4 15.1 182 29.3
2005-05-26 10:05:48 51°37.75 2°41.922 179.8 15.2 183 29.6
2005-05-26 10:06:49 51°37.501 2°41.858 201.7 15.3 207 30.2
2005-05-26 10:07:49 51°37.37 2°41.528 263.7 14.8 259 23.2
2005-05-26 10:08:48 51°37.361 2°41.131 278.7 15 269 18.2
2005-05-26 10:09:49 51°37.36 2°40.728 278.6 15 270 21.2
2005-05-26 10:10:49 51°37.361 2°40.327 278.3 14.8 270 25.8
2005-05-26 10:11:49 51°37.366 2°39.933 280 14.6 271 32
2005-05-26 10:12:49 51°37.37 2°39.544 279.3 14.5 271 35.3
2005-05-26 10:13:49 51°37.375 2°39.156 280.3 14.5 272 39.8
2005-05-26 10:14:49 51°37.38 2°38.766 279.5 14.7 271 37.6
2005-05-26 10:15:48 51°37.383 2°38.384 279.5 14.6 270 37.9
2005-05-26 10:16:49 51°37.387 2°37.989 280 14.5 271 36.5
2005-05-26 10:17:49 51°37.392 2°37.604 280.1 14.4 271 37.4
2005-05-26 10:18:48 51°37.414 2°37.23 285.7 14.3 276 39
2005-05-26 10:19:48 51°37.441 2°36.851 285.4 14.3 275 39.2
2005-05-26 10:20:49 51°37.467 2°36.466 284.5 14.4 275 38.1
2005-05-26 10:21:49 51°37.49 2°36.079 285.3 14.4 275 37.3
2005-05-26 10:22:49 51°37.512 2°35.696 285.8 14.5 276 36.5
2005-05-26 10:23:49 51°37.535 2°35.304 285.2 14.6 276 34.1
2005-05-26 10:24:49 51°37.561 2°34.916 285.9 14.6 276 28
2005-05-26 10:25:48 51°37.589 2°34.534 285.5 14.7 278 15.5
2005-05-26 10:26:48 51°37.578 2°34.147 254.6 14.6 249 24.4
2005-05-26 10:27:48 51°37.412 2°33.864 213.9 14.8 210 30.9
2005-05-26 10:28:49 51°37.177 2°33.715 198.8 15 200 31.8
2005-05-26 10:29:49 51°36.944 2°33.575 198.2 15 200 32.4
2005-05-26 10:30:49 51°36.712 2°33.437 199.5 14.9 200 33.8
2005-05-26 10:31:48 51°36.482 2°33.298 199.6 14.9 201 33.9
2005-05-26 10:32:48 51°36.25 2°33.156 201 14.9 202 35.2
2005-05-26 10:33:48 51°36.017 2°33.015 199.6 14.9 200 35.6
2005-05-26 10:34:48 51°35.784 2°32.874 199.8 14.9 201 36.1
2005-05-26 10:35:49 51°35.549 2°32.731 200.6 14.9 201 37.5
2005-05-26 10:36:49 51°35.312 2°32.601 198.1 14.9 199 36.4
2005-05-26 10:37:50 51°35.076 2°32.471 197.6 14.9 198 36.1
2005-05-26 10:38:49 51°34.844 2°32.344 197.9 15 199 36.4
2005-05-26 10:39:49 51°34.61 2°32.214 198.8 14.8 199 34.5
2005-05-26 10:40:48 51°34.379 2°32.092 196.4 14.8 197 33.4
2005-05-26 10:41:49 51°34.139 2°31.97 196.7 15 198 31
2005-05-26 10:42:49 51°33.902 2°31.853 195.9 15 197 28.1
2005-05-26 10:43:49 51°33.666 2°31.74 195.6 14.8 196 29.8
2005-05-26 10:44:48 51°33.431 2°31.626 195.9 14.9 196 29.7
2005-05-26 10:45:48 51°33.193 2°31.514 195.9 14.9 196 26.5
2005-05-26 10:46:48 51°32.955 2°31.405 194.6 14.8 195 26.5
2005-05-26 10:47:48 51°32.716 2°31.317 190.2 14.8 191 20.5
2005-05-26 10:48:49 51°32.468 2°31.25 187 14.8 187 22.9
2005-05-26 10:49:49 51°32.222 2°31.212 184.1 14.8 185 25
2005-05-26 10:50:48 51°31.98 2°31.205 180 14.9 181 26.9
2005-05-26 10:51:50 51°31.732 2°31.252 163.7 14.4 164 30
2005-05-26 10:52:49 51°31.51 2°31.377 157.1 14.5 159 33.2
2005-05-26 10:53:48 51°31.295 2°31.532 148.9 14.2 151 34.8
2005-05-26 10:54:48 51°31.091 2°31.722 145.5 14.1 148 36.2
2005-05-26 10:55:48 51°30.894 2°31.929 141.7 14.1 146 34.6
2005-05-26 10:56:49 51°30.72 2°32.173 130.1 13.8 134 34.6
2005-05-26 10:57:48 51°30.564 2°32.437 130.7 13.7 133 31.5
2005-05-26 10:58:49 51°30.404 2°32.703 131.3 13.7 134 27.3
2005-05-26 10:59:50 51°30.243 2°32.969 131.9 13.6 135 21
2005-05-26 11:00:49 51°30.083 2°33.224 132.4 13.6 135 19.8
2005-05-26 11:01:48 51°29.917 2°33.463 136.5 13.6 140 17.5
2005-05-26 11:02:50 51°29.734 2°33.695 137.3 13.7 141 14.1
2005-05-26 11:03:48 51°29.569 2°33.932 130.6 13.7 135 24.4
2005-05-26 11:04:50 51°29.403 2°34.201 130.3 13.8 135 37.2
2005-05-26 11:05:48 51°29.257 2°34.465 123.9 13.5 128 36.8
2005-05-26 11:06:48 51°29.151 2°34.773 109.7 13.2 115 36.7
2005-05-26 11:07:49 51°29.118 2°35.115 89.9 12.8 91 35.1
2005-05-26 11:08:48 51°29.113 2°35.453 89.2 13 91 35.2
2005-05-26 11:09:49 51°29.105 2°35.805 90.4 13 92 32.7
2005-05-26 11:10:48 51°29.096 2°36.145 91.1 12.9 93 27.3
2005-05-26 11:11:49 51°29.081 2°36.49 92 12.9 94 24.9
2005-05-26 11:12:49 51°29.064 2°36.833 91.6 12.8 94 25.9
2005-05-26 11:13:49 51°29.048 2°37.167 92.3 12.7 95 34.9
2005-05-26 11:14:48 51°29.033 2°37.501 91.4 12.6 94 36.6
2005-05-26 11:15:49 51°28.943 2°37.815 123.9 13.4 131 36.5
2005-05-26 11:16:49 51°28.757 2°38.022 148.5 14.1 154 36.3
2005-05-26 11:17:48 51°28.548 2°38.189 150.3 14.1 154 36.8
2005-05-26 11:18:48 51°28.337 2°38.356 150.7 14.2 155 37
2005-05-26 11:19:50 51°28.12 2°38.528 150.6 14.2 153 36.3
2005-05-26 11:20:49 51°27.912 2°38.695 150.9 14.2 154 32.6
2005-05-26 11:21:49 51°27.696 2°38.865 151.5 14.3 154 32.6
2005-05-26 11:22:48 51°27.483 2°39.021 155.4 14.4 159 33.7
2005-05-26 11:23:49 51°27.253 2°39.153 158.2 14.4 160 33.9
2005-05-26 11:24:50 51°27.025 2°39.278 158.8 14.3 162 33.4
2005-05-26 11:25:49 51°26.799 2°39.392 161.9 14.4 163 32.2
2005-05-26 11:26:50 51°26.573 2°39.496 161.5 13.9 165 33.8
2005-05-26 11:27:50 51°26.354 2°39.594 161.5 13.6 164 32.1
2005-05-26 11:28:49 51°26.14 2°39.689 161.6 13.6 164 31.4
2005-05-26 11:29:50 51°25.917 2°39.79 160.8 13.7 164 31.1
2005-05-26 11:30:49 51°25.699 2°39.89 161.4 13.7 164 30.9
2005-05-26 11:31:50 51°25.476 2°39.988 161.8 13.9 165 29.4
2005-05-26 11:32:49 51°25.253 2°40.073 163.9 13.9 167 27.7
2005-05-26 11:33:49 51°25.029 2°40.158 163.8 14 166 28.2
2005-05-26 11:34:50 51°24.799 2°40.246 164.2 14 166 25.6
2005-05-26 11:35:50 51°24.573 2°40.337 163.8 14 166 26
2005-05-26 11:36:50 51°24.347 2°40.431 163.7 14 166 24.4
2005-05-26 11:37:48 51°24.126 2°40.522 164.7 14.2 166 27.8
2005-05-26 11:38:49 51°23.894 2°40.617 167.8 14.2 165 29.3
2005-05-26 11:39:49 51°23.662 2°40.566 189.3 14.1 190 29.3
2005-05-26 11:40:49 51°23.434 2°40.498 188.7 14 190 29.7
2005-05-26 11:41:49 51°23.211 2°40.412 187.6 13.8 187 30
2005-05-26 11:42:49 51°22.979 2°40.377 184 13.9 186 29.5
2005-05-26 11:43:49 51°22.749 2°40.345 184.6 13.9 185 30
2005-05-26 11:44:49 51°22.565 2°40.17 239.5 13.7 244 29.9
2005-05-26 11:45:50 51°22.488 2°39.812 255.8 14.3 252 30
2005-05-26 11:46:49 51°22.408 2°39.459 251.1 14.2 248 29
2005-05-26 11:47:49 51°22.305 2°39.119 245.3 14.2 242 29.8
2005-05-26 11:48:49 51°22.167 2°38.824 229.3 14 228 30.5
2005-05-26 11:49:49 51°21.956 2°38.697 188.7 13.7 190 29.2
2005-05-26 11:50:50 51°21.725 2°38.744 170.7 13.9 171 28.4
2005-05-26 11:51:49 51°21.524 2°38.899 144.8 13.9 139 26.7
2005-05-26 11:52:49 51°21.363 2°39.168 132.9 13.9 134 26.5
2005-05-26 11:53:49 51°21.202 2°39.434 135 13.9 134 26.7
2005-05-26 11:54:48 51°21.053 2°39.71 131.5 13.9 130 26.6
2005-05-26 11:55:48 51°20.901 2°39.991 132.1 14 131 27.2
2005-05-26 11:56:50 51°20.77 2°40.304 122.3 13.7 122 26.9
2005-05-26 11:57:50 51°20.659 2°40.63 119.7 14 118 27.9
2005-05-26 11:58:48 51°20.551 2°40.948 121 13.9 119 28.6
2005-05-26 11:59:49 51°20.438 2°41.281 121.2 14.1 119 23
2005-05-26 12:00:49 51°20.331 2°41.613 119 14 116 22.5
2005-05-26 12:01:48 51°20.231 2°41.939 119.6 13.9 115 19.8
2005-05-26 12:02:48 51°20.131 2°42.268 120.3 13.7 116 22.8
2005-05-26 12:03:49 51°20.041 2°42.605 116.5 13.6 113 25.7
2005-05-26 12:04:49 51°19.957 2°42.939 116.5 13.6 112 26.9
2005-05-26 12:05:48 51°19.874 2°43.272 115.5 13.5 111 25.8
2005-05-26 12:06:50 51°19.788 2°43.614 116.6 13.6 112 26.2
2005-05-26 12:07:49 51°19.706 2°43.941 116.5 13.5 111 26
2005-05-26 12:08:50 51°19.623 2°44.284 115.5 13.6 111 24.3
2005-05-26 12:09:48 51°19.543 2°44.615 116 13.6 111 23.2
2005-05-26 12:10:49 51°19.458 2°44.96 116.1 13.8 112 19.2
2005-05-26 12:11:49 51°19.368 2°45.302 116.5 14.1 112 12.4
2005-05-26 12:12:48 51°19.281 2°45.645 115.4 14.1 111 16
2005-05-26 12:13:50 51°19.191 2°45.998 116.8 13.9 112 20.4
2005-05-26 12:14:48 51°19.108 2°46.331 116.2 13.8 112 22.4
2005-05-26 12:15:48 51°19.023 2°46.672 116.3 13.7 113 22.5
2005-05-26 12:16:49 51°18.936 2°47.016 116.4 13.9 112 21.6
2005-05-26 12:17:48 51°18.854 2°47.358 116.5 13.9 111 20.3
2005-05-26 12:18:49 51°18.769 2°47.708 117.2 14 112 18
2005-05-26 12:19:50 51°18.683 2°48.057 117 14.1 112 16
2005-05-26 12:20:49 51°18.599 2°48.4 117.1 14.2 112 13.9
2005-05-26 12:21:48 51°18.513 2°48.749 116.3 14.4 111 12.8
2005-05-26 12:22:50 51°18.425 2°49.114 116.4 14.4 111 12.2
2005-05-26 12:23:50 51°18.34 2°49.469 115.5 14.3 110 13.2
2005-05-26 12:24:50 51°18.253 2°49.819 115.9 14.1 112 15.5
2005-05-26 12:25:50 51°18.168 2°50.169 115.6 14.1 111 15.8
2005-05-26 12:26:50 51°18.083 2°50.516 116.2 14.1 112 15
2005-05-26 12:27:50 51°18 2°50.863 116.1 14 111 14.3
2005-05-26 12:28:50 51°17.913 2°51.21 117.4 14.1 111 13
2005-05-26 12:29:50 51°17.803 2°51.538 125.8 14 121 12.1
2005-05-26 12:30:48 51°17.674 2°51.835 134.5 14 129 12.2
2005-05-26 12:31:50 51°17.496 2°52.076 149.6 13.6 144 12.4
2005-05-26 12:32:48 51°17.305 2°52.254 160.4 13.6 153 12.6
2005-05-26 12:33:49 51°17.092 2°52.383 172.3 13.4 165 12
2005-05-26 12:34:50 51°16.872 2°52.386 188.1 13.1 182 11.8
2005-05-26 12:35:50 51°16.653 2°52.382 187.4 13.1 180 12.5
2005-05-26 12:36:50 51°16.434 2°52.384 185.9 13.1 179 13.9
2005-05-26 12:37:49 51°16.215 2°52.392 185.8 13.3 178 14.4
2005-05-26 12:38:49 51°15.997 2°52.403 186.5 13 178 14.4
2005-05-26 12:39:50 51°15.778 2°52.42 185.5 13 177 14.3
2005-05-26 12:40:48 51°15.567 2°52.466 180.6 13 172 14.1
2005-05-26 12:41:48 51°15.354 2°52.511 180 12.9 172 13.7
2005-05-26 12:42:50 51°15.135 2°52.565 179.5 13 169 13.1
2005-05-26 12:43:48 51°15.003 2°52.669 151.8 7.2 138 13.1
2005-05-26 12:44:50 51°14.961 2°52.806 123.7 5.1 104 13
2005-05-26 12:45:50 51°14.955 2°52.919 117 3.9 92 13
2005-05-26 12:46:50 51°14.953 2°53.008 128.2 3.1 93 12.9
2005-05-26 12:47:50 51°14.952 2°53.085 136.4 2.8 88 12.9
2005-05-26 12:48:50 51°14.953 2°53.153 146 2.5 85 12.9
2005-05-26 12:49:49 51°14.955 2°53.213 154.8 2.1 88 12.9
2005-05-26 12:50:49 51°14.958 2°53.27 164.3 2.5 104 12.8
2005-05-26 12:51:50 51°14.955 2°53.39 87 5.4 75 12.7
2005-05-26 12:52:50 51°14.971 2°53.453 58.4 2.6 65 12.6
2005-05-26 12:53:48 51°14.99 2°53.511 41.9 2.5 58 12.6
2005-05-26 12:54:50 51°15.012 2°53.57 29.7 2.5 59 12.5
2005-05-26 12:55:49 51°15.034 2°53.625 19.1 2.5 58 12.4
2005-05-26 12:56:50 51°15.056 2°53.68 9.4 2.4 57 12.4
2005-05-26 12:57:50 51°15.083 2°53.736 5.8 2.9 47 12.4
2005-05-26 12:58:50 51°15.138 2°53.876 87.4 7.6 78 12.2
2005-05-26 12:59:49 51°15.054 2°54.071 145.8 11.3 136 11.6
2005-05-26 13:00:50 51°14.902 2°54.279 147 12.3 136 11.7
2005-05-26 13:01:50 51°14.748 2°54.516 148.2 13 134 12.3
2005-05-26 13:02:49 51°14.586 2°54.726 159.6 12.5 146 12.4
2005-05-26 13:03:48 51°14.424 2°54.927 146.3 13 135 13.2
2005-05-26 13:04:49 51°14.302 2°55.157 132.3 9.4 131 12.9
2005-05-26 13:05:50 51°14.233 2°55.313 133.4 5.8 131 13.5
2005-05-26 13:06:50 51°14.17 2°55.387 156.2 4.3 151 13.6
2005-05-26 13:07:50 51°14.1 2°55.442 157.9 4.9 154 12.8
2005-05-26 13:08:49 51°14.019 2°55.498 164.5 4.9 160 12.2
2005-05-26 13:09:49 51°13.948 2°55.547 159.7 4.8 156 12.3
2005-05-26 13:10:50 51°13.868 2°55.607 160.1 5.4 156 12.9
2005-05-26 13:11:50 51°13.777 2°55.677 154.1 6.3 152 12.2
2005-05-26 13:12:50 51°13.708 2°55.778 127.8 4.9 127 14.5
2005-05-26 13:13:49 51°13.671 2°55.879 122.3 4.3 119 12.5
2005-05-26 13:14:48 51°13.637 2°55.971 124.1 4 121 12.5
2005-05-26 13:15:49 51°13.611 2°56.058 113.2 2.9 113 11.6
2005-05-26 13:16:49 51°13.599 2°56.104 118.6 0.7 119 9.3